createdAt,value
2022-11-07T00:00:33.490Z,4.99
2022-11-07T00:03:04.830Z,4.99
2022-11-07T00:05:41.273Z,5.00
2022-11-07T00:08:09.319Z,4.99
2022-11-07T00:10:36.428Z,4.97
2022-11-07T00:13:04.944Z,4.98
2022-11-07T00:15:32.107Z,5.02
2022-11-07T00:17:59.124Z,5.06
2022-11-07T00:20:26.773Z,5.08
2022-11-07T00:22:56.849Z,5.15
2022-11-07T00:25:23.817Z,5.07
2022-11-07T00:27:53.250Z,5.03
2022-11-07T00:30:32.574Z,5.05
2022-11-07T00:33:11.674Z,5.09
2022-11-07T00:35:43.313Z,4.99
2022-11-07T00:38:11.456Z,4.93
2022-11-07T00:40:38.463Z,4.89
2022-11-07T00:43:12.336Z,5.08
2022-11-07T00:45:41.597Z,5.23
2022-11-07T00:48:15.696Z,5.65
2022-11-07T00:50:49.755Z,6.05
2022-11-07T00:53:17.194Z,6.26
2022-11-07T00:55:44.437Z,6.51
2022-11-07T00:58:14.146Z,6.65
2022-11-07T01:00:42.987Z,6.88
2022-11-07T01:03:28.355Z,7.11
2022-11-07T01:05:58.863Z,7.23
2022-11-07T01:08:27.356Z,7.37
2022-11-07T01:10:56.045Z,7.48
2022-11-07T01:13:24.042Z,7.58
2022-11-07T01:15:52.030Z,7.64
2022-11-07T01:18:20.723Z,7.70
2022-11-07T01:20:50.019Z,7.77
2022-11-07T01:23:18.096Z,7.73
2022-11-07T01:25:51.507Z,7.83
2022-11-07T01:28:24.805Z,7.88
2022-11-07T01:30:51.794Z,7.85
2022-11-07T01:33:18.765Z,7.86
2022-11-07T01:35:47.764Z,7.91
2022-11-07T01:38:23.015Z,7.84
2022-11-07T01:41:15.560Z,7.83
2022-11-07T01:44:05.333Z,7.86
2022-11-07T01:46:43.288Z,7.88
2022-11-07T01:49:20.365Z,7.87
2022-11-07T01:52:00.398Z,7.90
2022-11-07T01:54:45.338Z,7.89
2022-11-07T01:57:21.176Z,7.91
2022-11-07T01:59:52.191Z,7.90
2022-11-07T02:02:19.253Z,7.94
2022-11-07T02:04:47.330Z,7.91
2022-11-07T02:07:22.021Z,7.89
2022-11-07T02:09:54.340Z,7.88
2022-11-07T02:12:27.116Z,7.85
2022-11-07T02:14:56.311Z,7.84
2022-11-07T02:17:31.265Z,7.75
2022-11-07T02:20:18.384Z,7.73
2022-11-07T02:23:26.778Z,7.61
2022-11-07T02:26:19.765Z,7.54
2022-11-07T02:29:03.698Z,7.48
2022-11-07T02:31:39.889Z,7.43
2022-11-07T02:34:14.112Z,7.50
2022-11-07T02:36:43.149Z,7.41
2022-11-07T02:39:10.140Z,7.34
2022-11-07T02:41:48.330Z,7.30
2022-11-07T02:44:39.721Z,7.28
2022-11-07T02:47:26.908Z,7.22
2022-11-07T02:50:02.148Z,7.20
2022-11-07T02:52:44.300Z,7.29
2022-11-07T02:55:19.767Z,7.22
2022-11-07T02:58:27.522Z,7.22
2022-11-07T03:01:07.259Z,7.10
2022-11-07T03:04:06.183Z,7.13
2022-11-07T03:06:41.845Z,7.02
2022-11-07T03:09:08.728Z,6.89
2022-11-07T03:11:42.863Z,6.98
2022-11-07T03:14:09.992Z,6.93
2022-11-07T03:16:40.854Z,6.93
2022-11-07T03:19:08.854Z,6.97
2022-11-07T03:21:54.562Z,7.07
2022-11-07T03:25:27.399Z,7.13
2022-11-07T03:27:54.343Z,7.12
2022-11-07T03:30:28.471Z,7.10
2022-11-07T03:32:55.789Z,7.05
2022-11-07T03:35:23.999Z,7.06
2022-11-07T03:37:51.007Z,7.08
2022-11-07T03:40:19.067Z,7.08
2022-11-07T03:43:08.979Z,7.25
2022-11-07T03:45:38.055Z,7.33
2022-11-07T03:48:11.287Z,7.43
2022-11-07T03:50:41.568Z,7.50
2022-11-07T03:53:08.755Z,7.54
2022-11-07T03:55:35.672Z,7.60
2022-11-07T03:58:08.639Z,7.62
2022-11-07T04:00:35.678Z,7.69
2022-11-07T04:03:08.833Z,7.75
2022-11-07T04:05:36.769Z,7.74
2022-11-07T04:08:04.715Z,7.73
2022-11-07T04:10:34.698Z,7.73
2022-11-07T04:13:20.359Z,7.69
2022-11-07T04:16:05.985Z,7.74
2022-11-07T04:18:33.078Z,7.72
2022-11-07T04:21:07.197Z,7.77
2022-11-07T04:23:44.468Z,7.77
2022-11-07T04:26:59.938Z,7.78
2022-11-07T04:29:33.734Z,7.84
2022-11-07T04:32:00.738Z,7.82
2022-11-07T04:34:28.733Z,7.79
2022-11-07T04:36:58.865Z,7.84
2022-11-07T04:39:26.019Z,7.86
2022-11-07T04:42:16.960Z,7.92
2022-11-07T04:44:44.110Z,7.89
2022-11-07T04:47:23.558Z,7.95
2022-11-07T04:49:56.614Z,7.88
2022-11-07T04:53:24.212Z,7.85
2022-11-07T04:55:52.343Z,7.68
2022-11-07T04:58:26.699Z,7.84
2022-11-07T05:00:55.673Z,7.86
2022-11-07T05:03:47.492Z,7.84
2022-11-07T05:06:15.673Z,7.80
2022-11-07T05:09:01.988Z,7.64
2022-11-07T05:11:48.715Z,7.55
2022-11-07T05:14:22.818Z,7.70
2022-11-07T05:16:53.352Z,7.83
2022-11-07T05:19:32.824Z,7.85
2022-11-07T05:22:18.907Z,7.79
2022-11-07T05:25:18.983Z,7.79
2022-11-07T05:27:45.854Z,7.79
2022-11-07T05:30:33.583Z,7.78
2022-11-07T05:33:47.087Z,7.76
2022-11-07T05:36:24.454Z,7.71
2022-11-07T05:38:53.648Z,7.61
2022-11-07T05:41:22.317Z,7.63
2022-11-07T05:43:50.253Z,7.50
2022-11-07T05:46:23.321Z,7.53
2022-11-07T05:49:00.894Z,7.70
2022-11-07T05:51:33.790Z,7.74
2022-11-07T05:54:19.315Z,7.64
2022-11-07T05:56:47.622Z,7.65
2022-11-07T05:59:15.357Z,7.58
2022-11-07T06:01:47.662Z,7.58
2022-11-07T06:04:35.384Z,7.45
2022-11-07T06:07:03.565Z,7.49
2022-11-07T06:09:31.649Z,7.52
2022-11-07T06:12:00.641Z,7.58
2022-11-07T06:14:28.289Z,7.60
2022-11-07T06:16:55.325Z,7.60
2022-11-07T06:19:22.256Z,7.54
2022-11-07T06:21:49.329Z,7.50
2022-11-07T06:24:17.258Z,7.52
2022-11-07T06:26:44.234Z,7.81
2022-11-07T06:29:17.485Z,7.83
2022-11-07T06:31:45.859Z,7.70
2022-11-07T06:34:12.875Z,7.64
2022-11-07T06:36:40.016Z,7.72
2022-11-07T06:39:15.289Z,7.70
2022-11-07T06:41:42.343Z,7.82
2022-11-07T06:44:11.415Z,7.80
2022-11-07T06:46:41.464Z,7.80
2022-11-07T06:49:10.949Z,7.81
2022-11-07T06:51:40.804Z,7.80
2022-11-07T06:54:10.944Z,7.85
2022-11-07T06:56:44.015Z,7.88
2022-11-07T06:59:13.119Z,7.95
2022-11-07T07:01:42.181Z,7.96
2022-11-07T07:04:13.294Z,7.95
2022-11-07T07:06:46.329Z,7.96
2022-11-07T07:09:14.386Z,7.88
2022-11-07T07:11:43.070Z,7.96
2022-11-07T07:14:17.361Z,7.93
2022-11-07T07:16:44.534Z,7.95
2022-11-07T07:19:13.732Z,8.07
2022-11-07T07:21:43.877Z,8.01
2022-11-07T07:24:10.899Z,7.95
2022-11-07T07:26:38.895Z,7.94
2022-11-07T07:29:06.871Z,7.97
2022-11-07T07:31:36.866Z,8.00
2022-11-07T07:34:04.915Z,8.03
2022-11-07T07:36:38.986Z,8.08
2022-11-07T07:39:08.000Z,8.03
2022-11-07T07:41:40.979Z,8.07
2022-11-07T07:44:08.121Z,8.14
2022-11-07T07:46:38.785Z,8.20
2022-11-07T07:49:09.129Z,8.27
2022-11-07T07:51:37.234Z,8.26
2022-11-07T07:54:04.201Z,8.39
2022-11-07T07:56:50.416Z,8.49
2022-11-07T07:59:30.821Z,8.41
2022-11-07T08:02:00.145Z,8.41
2022-11-07T08:04:27.286Z,8.42
2022-11-07T08:07:00.266Z,8.35
2022-11-07T08:09:27.281Z,8.42
2022-11-07T08:11:55.275Z,8.55
2022-11-07T08:14:23.281Z,8.58
2022-11-07T08:16:50.333Z,8.64
2022-11-07T08:19:19.316Z,8.69
2022-11-07T08:22:01.588Z,8.69
2022-11-07T08:24:28.682Z,8.72
2022-11-07T08:26:56.351Z,8.79
2022-11-07T08:29:46.300Z,8.77
2022-11-07T08:32:24.154Z,9.00
2022-11-07T08:34:52.391Z,9.16
2022-11-07T08:37:20.821Z,9.19
2022-11-07T08:39:53.871Z,9.25
2022-11-07T08:42:24.820Z,9.39
2022-11-07T08:44:55.108Z,9.60
2022-11-07T08:47:28.937Z,9.87
2022-11-07T08:49:56.006Z,10.12
2022-11-07T08:52:26.084Z,10.51
2022-11-07T08:54:54.047Z,10.88
2022-11-07T08:57:32.636Z,11.87
2022-11-07T09:00:00.639Z,12.31
2022-11-07T09:05:42.365Z,14.24
2022-11-07T09:08:14.360Z,14.42
2022-11-07T09:10:51.314Z,14.88
2022-11-07T09:13:22.339Z,14.21
2022-11-07T09:15:51.513Z,12.92
2022-11-07T09:18:33.996Z,12.04
2022-11-07T09:21:10.046Z,12.25
2022-11-07T09:23:40.160Z,11.95
2022-11-07T09:26:17.137Z,12.03
2022-11-07T09:28:51.084Z,12.15
2022-11-07T09:31:33.288Z,12.44
2022-11-07T09:34:00.307Z,12.42
2022-11-07T09:36:29.451Z,12.42
2022-11-07T09:39:20.121Z,11.64
2022-11-07T09:42:27.286Z,11.42
2022-11-07T09:45:12.424Z,11.56
2022-11-07T09:47:51.209Z,11.64
2022-11-07T09:50:34.913Z,12.61
2022-11-07T09:53:10.969Z,13.74
2022-11-07T09:55:45.549Z,14.70
2022-11-07T09:58:27.338Z,15.50
2022-11-07T10:01:02.608Z,16.29
2022-11-07T10:04:10.299Z,16.36
2022-11-07T10:06:38.110Z,15.72
2022-11-07T10:09:29.580Z,15.64
2022-11-07T10:12:44.272Z,15.53
2022-11-07T10:15:49.078Z,15.36
2022-11-07T10:18:42.334Z,15.85
2022-11-07T10:21:43.281Z,16.23
2022-11-07T10:24:36.610Z,16.89
2022-11-07T10:27:09.775Z,17.26
2022-11-07T10:29:52.980Z,16.60
2022-11-07T10:32:42.948Z,16.43
2022-11-07T10:35:38.100Z,16.64
2022-11-07T10:38:29.654Z,16.53
2022-11-07T10:40:57.517Z,16.84
2022-11-07T10:43:36.569Z,15.99
2022-11-07T10:46:14.343Z,15.08
2022-11-07T10:49:00.242Z,13.65
2022-11-07T10:51:38.222Z,12.82
2022-11-07T10:54:30.369Z,12.43
2022-11-07T10:57:19.026Z,12.09
2022-11-07T10:59:57.024Z,12.02
2022-11-07T11:02:29.669Z,12.18
2022-11-07T11:05:37.250Z,12.00
2022-11-07T11:08:23.225Z,11.80
2022-11-07T11:10:51.415Z,11.72
2022-11-07T11:13:40.246Z,12.19
2022-11-07T11:16:15.788Z,13.66
2022-11-07T11:18:52.890Z,14.60
2022-11-07T11:21:22.174Z,15.15
2022-11-07T11:23:51.579Z,16.02
2022-11-07T11:26:31.611Z,16.26
2022-11-07T11:29:35.469Z,15.86
2022-11-07T11:32:17.392Z,15.74
2022-11-07T11:35:42.363Z,15.84
2022-11-07T11:38:14.227Z,15.59
2022-11-07T11:41:21.725Z,15.30
2022-11-07T11:44:05.864Z,15.82
2022-11-07T11:46:44.385Z,15.70
2022-11-07T11:49:22.560Z,15.43
2022-11-07T11:52:03.921Z,14.83
2022-11-07T11:54:37.827Z,15.11
2022-11-07T11:57:18.768Z,14.70
2022-11-07T12:00:05.629Z,14.52
2022-11-07T12:02:37.469Z,13.76
2022-11-07T12:05:35.964Z,13.44
2022-11-07T12:08:41.506Z,14.43
2022-11-07T12:11:38.590Z,14.51
2022-11-07T12:14:24.090Z,14.46
2022-11-07T12:16:58.589Z,13.98
2022-11-07T12:19:38.570Z,13.07
2022-11-07T12:22:22.050Z,13.29
2022-11-07T12:25:04.364Z,13.16
2022-11-07T12:27:43.299Z,13.18
2022-11-07T12:30:27.788Z,13.04
2022-11-07T12:33:32.121Z,12.54
2022-11-07T12:36:24.974Z,12.39
2022-11-07T12:39:29.021Z,12.33
2022-11-07T12:42:06.053Z,12.38
2022-11-07T12:45:11.881Z,12.33
2022-11-07T12:48:17.445Z,12.18
2022-11-07T12:51:11.140Z,12.96
2022-11-07T12:54:07.409Z,12.60
2022-11-07T12:56:44.907Z,12.26
2022-11-07T12:59:22.889Z,12.48
2022-11-07T13:02:28.451Z,13.19
2022-11-07T13:05:34.252Z,13.54
2022-11-07T13:08:22.347Z,13.57
2022-11-07T13:11:03.927Z,13.25
2022-11-07T13:14:03.723Z,12.66
2022-11-07T13:16:34.807Z,12.85
2022-11-07T13:19:31.154Z,12.91
2022-11-07T13:22:21.345Z,12.83
2022-11-07T13:25:09.386Z,13.66
2022-11-07T13:28:02.268Z,14.65
2022-11-07T13:30:40.525Z,14.79
2022-11-07T13:33:26.627Z,14.91
2022-11-07T13:36:32.734Z,15.32
2022-11-07T13:39:06.951Z,15.39
2022-11-07T13:41:34.917Z,15.45
2022-11-07T13:44:18.619Z,15.24
2022-11-07T13:47:01.978Z,15.03
2022-11-07T13:49:47.540Z,15.12
2022-11-07T13:52:26.645Z,15.26
2022-11-07T13:55:22.297Z,15.33
2022-11-07T13:57:55.096Z,15.63
2022-11-07T14:00:33.113Z,15.65
2022-11-07T14:03:02.171Z,15.16
2022-11-07T14:05:38.168Z,15.27
2022-11-07T14:08:23.533Z,15.56
2022-11-07T14:10:52.967Z,16.18
2022-11-07T14:13:41.172Z,16.38
2022-11-07T14:16:20.780Z,16.90
2022-11-07T14:18:50.405Z,17.37
2022-11-07T14:21:28.539Z,17.42
2022-11-07T14:23:56.077Z,17.78
2022-11-07T14:26:33.151Z,17.91
2022-11-07T14:29:04.066Z,17.62
2022-11-07T14:31:34.044Z,17.27
2022-11-07T14:34:14.005Z,17.39
2022-11-07T14:36:55.527Z,17.52
2022-11-07T14:39:25.180Z,17.40
2022-11-07T14:41:53.145Z,16.64
2022-11-07T14:44:32.159Z,15.35
2022-11-07T14:47:22.260Z,14.56
2022-11-07T14:49:51.858Z,13.87
2022-11-07T14:52:33.169Z,13.76
2022-11-07T14:55:27.839Z,13.26
2022-11-07T14:58:02.141Z,13.39
2022-11-07T15:00:36.197Z,13.28
2022-11-07T15:03:07.306Z,13.17
2022-11-07T15:05:40.045Z,13.03
2022-11-07T15:08:07.712Z,12.81
2022-11-07T15:10:39.961Z,12.60
2022-11-07T15:13:24.746Z,12.34
2022-11-07T15:16:08.326Z,12.21
2022-11-07T15:18:41.960Z,12.13
2022-11-07T15:21:32.003Z,11.92
2022-11-07T15:24:01.165Z,11.57
2022-11-07T15:26:35.371Z,11.51
2022-11-07T15:29:25.179Z,11.57
2022-11-07T15:31:53.398Z,11.49
2022-11-07T15:34:39.020Z,11.18
2022-11-07T15:37:18.390Z,11.05
2022-11-07T15:39:48.001Z,11.04
2022-11-07T15:42:15.514Z,10.79
2022-11-07T15:44:44.147Z,10.90
2022-11-07T15:47:19.648Z,10.83
2022-11-07T15:49:49.017Z,10.75
2022-11-07T15:52:19.179Z,10.71
2022-11-07T15:54:46.415Z,10.58
2022-11-07T15:57:15.453Z,10.29
2022-11-07T15:59:43.816Z,10.07
2022-11-07T16:02:17.689Z,9.85
2022-11-07T16:04:44.995Z,9.88
2022-11-07T16:07:20.095Z,9.88
2022-11-07T16:09:49.084Z,9.81
2022-11-07T16:12:19.970Z,9.79
2022-11-07T16:14:48.324Z,9.72
2022-11-07T16:17:17.318Z,9.70
2022-11-07T16:19:44.778Z,9.53
2022-11-07T16:22:15.449Z,9.39
2022-11-07T16:24:49.658Z,9.24
2022-11-07T16:27:18.410Z,9.26
2022-11-07T16:29:46.776Z,9.11
2022-11-07T16:32:17.902Z,9.02
2022-11-07T16:34:48.683Z,8.97
2022-11-07T16:37:16.969Z,8.94
2022-11-07T16:39:46.134Z,8.86
2022-11-07T16:42:16.470Z,8.97
2022-11-07T16:44:43.909Z,9.02
2022-11-07T16:47:17.495Z,8.94
2022-11-07T16:49:45.318Z,8.92
2022-11-07T16:52:19.608Z,9.05
2022-11-07T16:54:50.316Z,9.15
2022-11-07T16:57:18.758Z,8.96
2022-11-07T16:59:47.909Z,8.90
2022-11-07T17:02:37.854Z,8.55
2022-11-07T17:05:11.297Z,8.25
2022-11-07T17:07:50.765Z,8.24
2022-11-07T17:10:19.561Z,8.37
2022-11-07T17:12:47.977Z,8.38
2022-11-07T17:15:16.368Z,8.13
2022-11-07T17:17:43.896Z,8.12
2022-11-07T17:20:49.925Z,8.31
2022-11-07T17:23:11.201Z,8.17
2022-11-07T17:25:54.556Z,8.08
2022-11-07T17:28:23.769Z,7.79
2022-11-07T17:31:01.049Z,7.88
2022-11-07T17:33:29.435Z,8.04
2022-11-07T17:36:01.177Z,7.79
2022-11-07T17:38:34.236Z,7.77
2022-11-07T17:41:21.699Z,7.94
2022-11-07T17:43:50.875Z,8.08
2022-11-07T17:46:28.065Z,8.00
2022-11-07T17:49:09.715Z,7.86
2022-11-07T17:51:44.408Z,7.45
2022-11-07T17:54:16.876Z,7.57
2022-11-07T17:57:05.844Z,7.70
2022-11-07T17:59:46.134Z,7.61
2022-11-07T18:02:44.101Z,7.54
2022-11-07T18:05:21.315Z,7.87
2022-11-07T18:07:49.027Z,7.88
2022-11-07T18:10:18.458Z,7.80
2022-11-07T18:12:57.835Z,7.89
2022-11-07T18:15:25.485Z,7.92
2022-11-07T18:17:53.298Z,7.88
2022-11-07T18:20:33.293Z,7.91
2022-11-07T18:23:23.177Z,7.96
2022-11-07T18:25:52.773Z,7.94
2022-11-07T18:28:30.600Z,8.01
2022-11-07T18:31:12.751Z,8.03
2022-11-07T18:33:41.798Z,8.09
2022-11-07T18:36:31.891Z,7.88
2022-11-07T18:39:13.568Z,8.00
2022-11-07T18:41:55.064Z,7.95
2022-11-07T18:44:31.574Z,7.92
2022-11-07T18:47:02.106Z,7.86
2022-11-07T18:50:05.243Z,7.87
2022-11-07T18:52:43.045Z,7.86
2022-11-07T18:55:10.518Z,7.91
2022-11-07T18:57:44.398Z,7.94
2022-11-07T19:00:16.397Z,7.99
2022-11-07T19:02:46.377Z,7.94
2022-11-07T19:05:19.453Z,8.03
2022-11-07T19:07:51.822Z,8.06
2022-11-07T19:10:24.671Z,8.12
2022-11-07T19:13:01.838Z,8.16
2022-11-07T19:15:35.675Z,8.10
2022-11-07T19:18:03.336Z,8.11
2022-11-07T19:20:35.234Z,8.10
2022-11-07T19:23:18.671Z,8.10
2022-11-07T19:25:51.469Z,8.07
2022-11-07T19:28:21.021Z,8.05
2022-11-07T19:30:51.385Z,7.98
2022-11-07T19:33:25.875Z,7.99
2022-11-07T19:36:07.291Z,7.93
2022-11-07T19:38:39.715Z,7.94
2022-11-07T19:41:14.871Z,7.97
2022-11-07T19:43:44.182Z,7.98
2022-11-07T19:46:22.925Z,7.90
2022-11-07T19:48:53.688Z,7.92
2022-11-07T19:51:28.530Z,8.01
2022-11-07T19:53:59.850Z,8.02
2022-11-07T19:56:32.077Z,8.03
2022-11-07T19:59:11.778Z,8.01
2022-11-07T20:01:40.329Z,8.00
2022-11-07T20:04:11.962Z,8.00
2022-11-07T20:06:41.417Z,7.93
2022-11-07T20:09:23.257Z,7.94
2022-11-07T20:11:53.892Z,7.96
2022-11-07T20:14:22.482Z,7.84
2022-11-07T20:16:50.277Z,7.84
2022-11-07T20:19:25.423Z,7.73
2022-11-07T20:22:12.894Z,7.77
2022-11-07T20:24:43.623Z,7.75
2022-11-07T20:27:11.493Z,7.64
2022-11-07T20:29:46.909Z,7.50
2022-11-07T20:32:30.613Z,7.37
2022-11-07T20:35:03.465Z,7.28
2022-11-07T20:37:34.076Z,7.11
2022-11-07T20:40:17.250Z,7.07
2022-11-07T20:42:55.895Z,7.25
2022-11-07T20:49:27.286Z,7.30
2022-11-07T20:52:39.211Z,7.09
2022-11-07T20:55:19.832Z,7.00
2022-11-07T20:57:48.136Z,6.99
2022-11-07T21:00:25.311Z,6.77
2022-11-07T21:03:30.376Z,6.80
2022-11-07T21:06:04.878Z,6.68
2022-11-07T21:08:38.226Z,6.70
2022-11-07T21:11:28.453Z,6.62
2022-11-07T21:14:01.234Z,6.54
2022-11-07T21:16:28.911Z,6.46
2022-11-07T21:19:07.116Z,6.46
2022-11-07T21:21:43.428Z,6.44
2022-11-07T21:24:32.261Z,6.38
2022-11-07T21:27:01.266Z,6.65
2022-11-07T21:29:41.560Z,6.81
2022-11-07T21:32:20.676Z,6.88
2022-11-07T21:35:02.579Z,6.67
2022-11-07T21:37:29.751Z,6.67
2022-11-07T21:40:25.695Z,6.81
2022-11-07T21:42:55.279Z,6.62
2022-11-07T21:45:22.828Z,6.54
2022-11-07T21:47:51.217Z,6.58
2022-11-07T21:50:49.088Z,6.81
2022-11-07T21:53:17.431Z,6.95
2022-11-07T21:56:09.005Z,6.93
2022-11-07T21:58:36.018Z,6.71
2022-11-07T22:01:05.982Z,6.73
2022-11-07T22:06:29.553Z,6.76
2022-11-07T22:09:24.905Z,6.59
2022-11-07T22:12:01.942Z,6.45
2022-11-07T22:14:37.874Z,6.53
2022-11-07T22:17:05.000Z,6.51
2022-11-07T22:19:34.054Z,6.45
2022-11-07T22:22:01.066Z,6.54
2022-11-07T22:24:33.045Z,6.62
2022-11-07T22:27:14.919Z,6.52
2022-11-07T22:29:53.085Z,6.50
2022-11-07T22:32:29.323Z,6.51
2022-11-07T22:35:08.955Z,6.39
2022-11-07T22:37:38.458Z,6.51
2022-11-07T22:40:14.295Z,6.59
2022-11-07T22:42:43.697Z,6.59
2022-11-07T22:45:14.981Z,6.50
2022-11-07T22:48:01.042Z,6.31
2022-11-07T22:50:29.080Z,6.33
2022-11-07T22:53:09.666Z,6.36
2022-11-07T22:56:26.639Z,6.23
2022-11-07T22:59:11.466Z,6.24
2022-11-07T23:01:51.222Z,6.23
2022-11-07T23:04:18.931Z,6.31
2022-11-07T23:06:45.994Z,6.21
2022-11-07T23:09:27.123Z,6.07
2022-11-07T23:11:56.085Z,6.01
2022-11-07T23:14:31.506Z,5.97
2022-11-07T23:16:58.869Z,5.95
2022-11-07T23:19:34.984Z,5.94
2022-11-07T23:22:03.156Z,5.90
2022-11-07T23:24:32.669Z,5.88
2022-11-07T23:27:16.640Z,5.95
2022-11-07T23:29:47.005Z,5.81
2022-11-07T23:32:26.425Z,5.67
2022-11-07T23:35:02.922Z,5.62
2022-11-07T23:37:32.716Z,5.85
2022-11-07T23:40:23.193Z,6.09
2022-11-07T23:42:52.087Z,6.02
2022-11-07T23:45:43.140Z,5.93
2022-11-07T23:48:39.961Z,5.97
2022-11-07T23:51:13.717Z,5.85
2022-11-07T23:53:59.728Z,5.62
2022-11-07T23:56:34.350Z,5.80
2022-11-07T23:59:20.277Z,5.82
